sensor_id;sensor_type;location;lat;lon;timestamp;temperature;humidity
73777;DHT22;62088;50.240;2.696;2023-03-18T00:00:14;12.10;80.50
73777;DHT22;62088;50.240;2.696;2023-03-18T00:02:44;12.10;80.40
73777;DHT22;62088;50.240;2.696;2023-03-18T00:05:12;12.00;80.30
73777;DHT22;62088;50.240;2.696;2023-03-18T00:07:39;12.00;80.20
73777;DHT22;62088;50.240;2.696;2023-03-18T00:10:08;12.00;80.10
73777;DHT22;62088;50.240;2.696;2023-03-18T00:12:37;11.90;80.00
73777;DHT22;62088;50.240;2.696;2023-03-18T00:15:09;11.90;80.00
73777;DHT22;62088;50.240;2.696;2023-03-18T00:17:37;11.90;80.00
73777;DHT22;62088;50.240;2.696;2023-03-18T00:20:06;11.90;79.90
73777;DHT22;62088;50.240;2.696;2023-03-18T00:22:35;11.90;79.90
73777;DHT22;62088;50.240;2.696;2023-03-18T00:25:04;11.80;79.90
73777;DHT22;62088;50.240;2.696;2023-03-18T00:27:33;11.80;79.80
73777;DHT22;62088;50.240;2.696;2023-03-18T00:30:01;11.80;79.80
73777;DHT22;62088;50.240;2.696;2023-03-18T00:32:29;11.70;79.80
73777;DHT22;62088;50.240;2.696;2023-03-18T00:34:56;11.70;79.90
73777;DHT22;62088;50.240;2.696;2023-03-18T00:37:24;11.60;80.10
73777;DHT22;62088;50.240;2.696;2023-03-18T00:40:02;11.60;80.10
73777;DHT22;62088;50.240;2.696;2023-03-18T00:42:35;11.60;80.30
73777;DHT22;62088;50.240;2.696;2023-03-18T00:45:07;11.50;80.30
73777;DHT22;62088;50.240;2.696;2023-03-18T00:47:34;11.50;80.30
73777;DHT22;62088;50.240;2.696;2023-03-18T00:50:03;11.50;80.30
73777;DHT22;62088;50.240;2.696;2023-03-18T00:52:30;11.50;80.30
73777;DHT22;62088;50.240;2.696;2023-03-18T00:54:59;11.50;80.40
73777;DHT22;62088;50.240;2.696;2023-03-18T00:57:28;11.50;80.40
73777;DHT22;62088;50.240;2.696;2023-03-18T00:59:56;11.50;80.50
73777;DHT22;62088;50.240;2.696;2023-03-18T01:02:26;11.50;80.50
73777;DHT22;62088;50.240;2.696;2023-03-18T01:04:55;11.50;80.50
73777;DHT22;62088;50.240;2.696;2023-03-18T01:07:24;11.50;80.60
73777;DHT22;62088;50.240;2.696;2023-03-18T01:09:51;11.40;80.70
73777;DHT22;62088;50.240;2.696;2023-03-18T01:12:18;11.40;80.80
73777;DHT22;62088;50.240;2.696;2023-03-18T01:14:45;11.40;81.00
73777;DHT22;62088;50.240;2.696;2023-03-18T01:17:12;11.40;81.10
73777;DHT22;62088;50.240;2.696;2023-03-18T01:19:40;11.40;81.20
73777;DHT22;62088;50.240;2.696;2023-03-18T01:22:08;11.40;81.30
73777;DHT22;62088;50.240;2.696;2023-03-18T01:24:41;11.30;81.40
73777;DHT22;62088;50.240;2.696;2023-03-18T01:27:09;11.30;81.40
73777;DHT22;62088;50.240;2.696;2023-03-18T01:29:38;11.30;81.40
73777;DHT22;62088;50.240;2.696;2023-03-18T01:32:11;11.30;81.50
73777;DHT22;62088;50.240;2.696;2023-03-18T01:34:39;11.20;81.50
73777;DHT22;62088;50.240;2.696;2023-03-18T01:37:07;11.20;81.50
73777;DHT22;62088;50.240;2.696;2023-03-18T01:39:37;11.20;81.60
73777;DHT22;62088;50.240;2.696;2023-03-18T01:42:10;11.20;81.70
73777;DHT22;62088;50.240;2.696;2023-03-18T01:44:37;11.20;81.80
73777;DHT22;62088;50.240;2.696;2023-03-18T01:47:05;11.10;81.80
73777;DHT22;62088;50.240;2.696;2023-03-18T01:49:42;11.20;81.90
73777;DHT22;62088;50.240;2.696;2023-03-18T01:52:14;11.10;81.90
73777;DHT22;62088;50.240;2.696;2023-03-18T01:54:47;11.10;82.00
73777;DHT22;62088;50.240;2.696;2023-03-18T01:57:16;11.10;82.00
73777;DHT22;62088;50.240;2.696;2023-03-18T01:59:47;11.10;82.10
73777;DHT22;62088;50.240;2.696;2023-03-18T02:02:16;11.00;82.10
73777;DHT22;62088;50.240;2.696;2023-03-18T02:04:47;11.00;82.20
73777;DHT22;62088;50.240;2.696;2023-03-18T02:07:23;11.00;82.20
73777;DHT22;62088;50.240;2.696;2023-03-18T02:09:51;11.00;82.30
73777;DHT22;62088;50.240;2.696;2023-03-18T02:12:22;11.00;82.30
73777;DHT22;62088;50.240;2.696;2023-03-18T02:14:53;10.90;82.40
73777;DHT22;62088;50.240;2.696;2023-03-18T02:17:23;10.90;82.50
73777;DHT22;62088;50.240;2.696;2023-03-18T02:20:26;10.90;82.60
73777;DHT22;62088;50.240;2.696;2023-03-18T02:23:08;10.90;82.70
73777;DHT22;62088;50.240;2.696;2023-03-18T02:28:13;10.80;82.80
73777;DHT22;62088;50.240;2.696;2023-03-18T02:30:46;10.80;82.90
73777;DHT22;62088;50.240;2.696;2023-03-18T02:33:17;10.80;82.90
73777;DHT22;62088;50.240;2.696;2023-03-18T02:35:49;10.70;83.00
73777;DHT22;62088;50.240;2.696;2023-03-18T02:38:17;10.70;83.00
73777;DHT22;62088;50.240;2.696;2023-03-18T02:40:44;10.70;83.00
73777;DHT22;62088;50.240;2.696;2023-03-18T02:43:27;10.60;83.00
73777;DHT22;62088;50.240;2.696;2023-03-18T02:48:47;10.60;83.00
73777;DHT22;62088;50.240;2.696;2023-03-18T02:51:16;10.60;83.00
73777;DHT22;62088;50.240;2.696;2023-03-18T02:53:44;10.60;82.90
73777;DHT22;62088;50.240;2.696;2023-03-18T02:56:12;10.60;82.90
73777;DHT22;62088;50.240;2.696;2023-03-18T02:58:40;10.60;82.80
73777;DHT22;62088;50.240;2.696;2023-03-18T03:01:09;10.60;82.70
73777;DHT22;62088;50.240;2.696;2023-03-18T03:03:38;10.60;82.50
73777;DHT22;62088;50.240;2.696;2023-03-18T03:06:07;10.60;82.40
73777;DHT22;62088;50.240;2.696;2023-03-18T03:08:34;10.50;82.30
73777;DHT22;62088;50.240;2.696;2023-03-18T03:11:04;10.50;82.20
73777;DHT22;62088;50.240;2.696;2023-03-18T03:13:34;10.50;82.10
73777;DHT22;62088;50.240;2.696;2023-03-18T03:16:01;10.40;82.00
73777;DHT22;62088;50.240;2.696;2023-03-18T03:18:29;10.50;82.00
73777;DHT22;62088;50.240;2.696;2023-03-18T03:20:56;10.40;81.90
73777;DHT22;62088;50.240;2.696;2023-03-18T03:23:23;10.40;81.80
73777;DHT22;62088;50.240;2.696;2023-03-18T03:25:51;10.40;81.70
73777;DHT22;62088;50.240;2.696;2023-03-18T03:28:19;10.40;81.70
73777;DHT22;62088;50.240;2.696;2023-03-18T03:30:46;10.40;81.70
73777;DHT22;62088;50.240;2.696;2023-03-18T03:33:14;10.40;81.60
73777;DHT22;62088;50.240;2.696;2023-03-18T03:35:41;10.30;81.60
73777;DHT22;62088;50.240;2.696;2023-03-18T03:38:09;10.30;81.50
73777;DHT22;62088;50.240;2.696;2023-03-18T03:40:36;10.30;81.50
73777;DHT22;62088;50.240;2.696;2023-03-18T03:43:05;10.20;81.60
73777;DHT22;62088;50.240;2.696;2023-03-18T03:45:32;10.20;81.60
73777;DHT22;62088;50.240;2.696;2023-03-18T03:48:00;10.20;81.70
73777;DHT22;62088;50.240;2.696;2023-03-18T03:50:27;10.20;81.70
73777;DHT22;62088;50.240;2.696;2023-03-18T03:52:54;10.10;81.70
73777;DHT22;62088;50.240;2.696;2023-03-18T03:55:22;10.10;81.80
73777;DHT22;62088;50.240;2.696;2023-03-18T03:57:52;10.10;81.90
73777;DHT22;62088;50.240;2.696;2023-03-18T04:00:20;10.10;82.00
73777;DHT22;62088;50.240;2.696;2023-03-18T04:02:49;10.00;82.10
73777;DHT22;62088;50.240;2.696;2023-03-18T04:05:21;10.00;82.20
73777;DHT22;62088;50.240;2.696;2023-03-18T04:07:50;10.00;82.30
73777;DHT22;62088;50.240;2.696;2023-03-18T04:10:23;10.00;82.40
73777;DHT22;62088;50.240;2.696;2023-03-18T04:12:51;10.00;82.40
73777;DHT22;62088;50.240;2.696;2023-03-18T04:15:19;9.90;82.50
73777;DHT22;62088;50.240;2.696;2023-03-18T04:17:49;10.00;82.50
73777;DHT22;62088;50.240;2.696;2023-03-18T04:20:18;9.90;82.60
73777;DHT22;62088;50.240;2.696;2023-03-18T04:22:46;9.90;82.70
73777;DHT22;62088;50.240;2.696;2023-03-18T04:25:15;9.90;82.80
73777;DHT22;62088;50.240;2.696;2023-03-18T04:27:42;9.90;82.90
73777;DHT22;62088;50.240;2.696;2023-03-18T04:30:12;9.90;83.00
73777;DHT22;62088;50.240;2.696;2023-03-18T04:32:58;9.90;83.20
73777;DHT22;62088;50.240;2.696;2023-03-18T04:35:28;9.90;83.30
73777;DHT22;62088;50.240;2.696;2023-03-18T04:37:55;9.90;83.50
73777;DHT22;62088;50.240;2.696;2023-03-18T04:40:23;9.90;83.70
73777;DHT22;62088;50.240;2.696;2023-03-18T04:42:50;9.90;83.90
73777;DHT22;62088;50.240;2.696;2023-03-18T04:45:22;9.90;84.00
73777;DHT22;62088;50.240;2.696;2023-03-18T04:47:53;9.90;84.20
73777;DHT22;62088;50.240;2.696;2023-03-18T04:50:20;10.00;84.30
73777;DHT22;62088;50.240;2.696;2023-03-18T04:52:48;10.00;84.70
73777;DHT22;62088;50.240;2.696;2023-03-18T04:55:19;10.00;84.90
73777;DHT22;62088;50.240;2.696;2023-03-18T04:57:47;10.00;85.10
73777;DHT22;62088;50.240;2.696;2023-03-18T05:00:19;10.10;85.40
73777;DHT22;62088;50.240;2.696;2023-03-18T05:02:56;10.10;85.60
73777;DHT22;62088;50.240;2.696;2023-03-18T05:05:25;10.10;85.70
73777;DHT22;62088;50.240;2.696;2023-03-18T05:07:53;10.20;85.70
73777;DHT22;62088;50.240;2.696;2023-03-18T05:10:20;10.20;85.70
73777;DHT22;62088;50.240;2.696;2023-03-18T05:12:48;10.20;85.80
73777;DHT22;62088;50.240;2.696;2023-03-18T05:15:24;10.30;85.80
73777;DHT22;62088;50.240;2.696;2023-03-18T05:17:54;10.30;85.80
73777;DHT22;62088;50.240;2.696;2023-03-18T05:20:21;10.30;85.80
73777;DHT22;62088;50.240;2.696;2023-03-18T05:22:49;10.30;85.80
73777;DHT22;62088;50.240;2.696;2023-03-18T05:25:30;10.30;85.80
73777;DHT22;62088;50.240;2.696;2023-03-18T05:27:57;10.30;85.80
73777;DHT22;62088;50.240;2.696;2023-03-18T05:30:33;10.30;85.70
73777;DHT22;62088;50.240;2.696;2023-03-18T05:33:02;10.30;85.60
73777;DHT22;62088;50.240;2.696;2023-03-18T05:35:40;10.30;85.60
73777;DHT22;62088;50.240;2.696;2023-03-18T05:38:07;10.30;85.50
73777;DHT22;62088;50.240;2.696;2023-03-18T05:40:34;10.30;85.50
73777;DHT22;62088;50.240;2.696;2023-03-18T05:43:08;10.30;85.50
73777;DHT22;62088;50.240;2.696;2023-03-18T05:45:46;10.40;85.40
73777;DHT22;62088;50.240;2.696;2023-03-18T05:48:16;10.40;85.40
73777;DHT22;62088;50.240;2.696;2023-03-18T05:50:50;10.30;85.40
73777;DHT22;62088;50.240;2.696;2023-03-18T05:53:22;10.40;85.40
73777;DHT22;62088;50.240;2.696;2023-03-18T05:55:56;10.40;85.40
73777;DHT22;62088;50.240;2.696;2023-03-18T05:58:24;10.40;85.40
73777;DHT22;62088;50.240;2.696;2023-03-18T06:01:10;10.40;85.30
73777;DHT22;62088;50.240;2.696;2023-03-18T06:03:40;10.40;85.40
73777;DHT22;62088;50.240;2.696;2023-03-18T06:06:07;10.40;85.30
73777;DHT22;62088;50.240;2.696;2023-03-18T06:08:34;10.40;85.40
73777;DHT22;62088;50.240;2.696;2023-03-18T06:11:02;10.40;85.40
73777;DHT22;62088;50.240;2.696;2023-03-18T06:13:29;10.40;85.40
73777;DHT22;62088;50.240;2.696;2023-03-18T06:15:58;10.40;85.40
73777;DHT22;62088;50.240;2.696;2023-03-18T06:18:28;10.40;85.30
73777;DHT22;62088;50.240;2.696;2023-03-18T06:20:55;10.40;85.30
73777;DHT22;62088;50.240;2.696;2023-03-18T06:23:23;10.40;85.30
73777;DHT22;62088;50.240;2.696;2023-03-18T06:25:50;10.40;85.20
73777;DHT22;62088;50.240;2.696;2023-03-18T06:28:20;10.40;85.20
73777;DHT22;62088;50.240;2.696;2023-03-18T06:30:48;10.40;85.20
73777;DHT22;62088;50.240;2.696;2023-03-18T06:33:15;10.40;85.10
73777;DHT22;62088;50.240;2.696;2023-03-18T06:35:42;10.40;85.10
73777;DHT22;62088;50.240;2.696;2023-03-18T06:38:09;10.40;85.10
73777;DHT22;62088;50.240;2.696;2023-03-18T06:40:41;10.40;85.10
73777;DHT22;62088;50.240;2.696;2023-03-18T06:43:08;10.40;85.10
73777;DHT22;62088;50.240;2.696;2023-03-18T06:45:39;10.40;85.10
73777;DHT22;62088;50.240;2.696;2023-03-18T06:48:08;10.40;85.10
73777;DHT22;62088;50.240;2.696;2023-03-18T06:50:39;10.40;85.10
73777;DHT22;62088;50.240;2.696;2023-03-18T06:53:14;10.40;85.10
73777;DHT22;62088;50.240;2.696;2023-03-18T06:55:42;10.40;85.10
73777;DHT22;62088;50.240;2.696;2023-03-18T06:58:09;10.40;85.10
73777;DHT22;62088;50.240;2.696;2023-03-18T07:00:45;10.40;85.10
73777;DHT22;62088;50.240;2.696;2023-03-18T07:03:24;10.40;85.10
73777;DHT22;62088;50.240;2.696;2023-03-18T07:05:52;10.40;85.10
73777;DHT22;62088;50.240;2.696;2023-03-18T07:08:20;10.40;85.10
73777;DHT22;62088;50.240;2.696;2023-03-18T07:10:50;10.40;85.00
73777;DHT22;62088;50.240;2.696;2023-03-18T07:13:19;10.40;85.00
73777;DHT22;62088;50.240;2.696;2023-03-18T07:15:46;10.40;85.00
73777;DHT22;62088;50.240;2.696;2023-03-18T07:18:13;10.40;85.00
73777;DHT22;62088;50.240;2.696;2023-03-18T07:20:41;10.40;85.00
73777;DHT22;62088;50.240;2.696;2023-03-18T07:23:08;10.40;84.90
73777;DHT22;62088;50.240;2.696;2023-03-18T07:25:36;10.40;84.90
73777;DHT22;62088;50.240;2.696;2023-03-18T07:28:03;10.40;84.90
73777;DHT22;62088;50.240;2.696;2023-03-18T07:30:31;10.40;85.00
73777;DHT22;62088;50.240;2.696;2023-03-18T07:32:59;10.40;85.00
73777;DHT22;62088;50.240;2.696;2023-03-18T07:35:27;10.40;85.00
73777;DHT22;62088;50.240;2.696;2023-03-18T07:37:54;10.40;85.00
73777;DHT22;62088;50.240;2.696;2023-03-18T07:40:22;10.40;84.90
73777;DHT22;62088;50.240;2.696;2023-03-18T07:42:49;10.40;84.90
73777;DHT22;62088;50.240;2.696;2023-03-18T07:45:19;10.50;84.90
73777;DHT22;62088;50.240;2.696;2023-03-18T07:47:46;10.50;84.90
73777;DHT22;62088;50.240;2.696;2023-03-18T07:50:14;10.50;85.00
73777;DHT22;62088;50.240;2.696;2023-03-18T07:52:41;10.50;85.00
73777;DHT22;62088;50.240;2.696;2023-03-18T07:55:09;10.60;85.00
73777;DHT22;62088;50.240;2.696;2023-03-18T07:57:37;10.60;85.00
73777;DHT22;62088;50.240;2.696;2023-03-18T08:00:05;10.60;84.90
73777;DHT22;62088;50.240;2.696;2023-03-18T08:02:38;10.70;84.60
73777;DHT22;62088;50.240;2.696;2023-03-18T08:05:06;10.70;84.50
73777;DHT22;62088;50.240;2.696;2023-03-18T08:07:34;10.70;84.50
73777;DHT22;62088;50.240;2.696;2023-03-18T08:10:02;10.80;84.50
73777;DHT22;62088;50.240;2.696;2023-03-18T08:12:29;10.80;84.40
73777;DHT22;62088;50.240;2.696;2023-03-18T08:15:14;10.90;84.40
73777;DHT22;62088;50.240;2.696;2023-03-18T08:17:42;10.90;84.00
73777;DHT22;62088;50.240;2.696;2023-03-18T08:20:09;11.00;83.90
73777;DHT22;62088;50.240;2.696;2023-03-18T08:22:38;11.00;84.00
73777;DHT22;62088;50.240;2.696;2023-03-18T08:25:05;11.10;84.00
73777;DHT22;62088;50.240;2.696;2023-03-18T08:27:33;11.20;83.70
73777;DHT22;62088;50.240;2.696;2023-03-18T08:30:00;11.30;83.60
73777;DHT22;62088;50.240;2.696;2023-03-18T08:32:29;11.30;83.00
73777;DHT22;62088;50.240;2.696;2023-03-18T08:34:56;11.40;82.60
73777;DHT22;62088;50.240;2.696;2023-03-18T08:37:23;11.50;82.80
73777;DHT22;62088;50.240;2.696;2023-03-18T08:39:50;11.50;83.10
73777;DHT22;62088;50.240;2.696;2023-03-18T08:42:17;11.60;83.10
73777;DHT22;62088;50.240;2.696;2023-03-18T08:44:45;11.70;83.00
73777;DHT22;62088;50.240;2.696;2023-03-18T08:47:12;11.80;82.50
73777;DHT22;62088;50.240;2.696;2023-03-18T08:49:39;11.90;81.80
73777;DHT22;62088;50.240;2.696;2023-03-18T08:52:06;11.90;81.50
73777;DHT22;62088;50.240;2.696;2023-03-18T08:54:34;11.90;81.50
73777;DHT22;62088;50.240;2.696;2023-03-18T08:57:00;12.10;81.30
73777;DHT22;62088;50.240;2.696;2023-03-18T08:59:28;12.20;81.10
73777;DHT22;62088;50.240;2.696;2023-03-18T09:01:55;12.20;80.80
73777;DHT22;62088;50.240;2.696;2023-03-18T09:04:22;12.30;81.00
73777;DHT22;62088;50.240;2.696;2023-03-18T09:06:51;12.40;80.60
73777;DHT22;62088;50.240;2.696;2023-03-18T09:09:19;12.40;80.70
73777;DHT22;62088;50.240;2.696;2023-03-18T09:11:50;12.50;80.00
73777;DHT22;62088;50.240;2.696;2023-03-18T09:14:17;12.60;80.00
73777;DHT22;62088;50.240;2.696;2023-03-18T09:16:44;12.60;80.00
73777;DHT22;62088;50.240;2.696;2023-03-18T09:19:11;12.70;80.10
73777;DHT22;62088;50.240;2.696;2023-03-18T09:21:38;12.80;79.70
73777;DHT22;62088;50.240;2.696;2023-03-18T09:24:06;12.90;79.10
73777;DHT22;62088;50.240;2.696;2023-03-18T09:26:33;13.00;78.90
73777;DHT22;62088;50.240;2.696;2023-03-18T09:29:00;13.10;78.90
73777;DHT22;62088;50.240;2.696;2023-03-18T09:31:27;13.20;78.80
73777;DHT22;62088;50.240;2.696;2023-03-18T09:33:54;13.30;78.30
73777;DHT22;62088;50.240;2.696;2023-03-18T09:36:21;13.40;77.30
73777;DHT22;62088;50.240;2.696;2023-03-18T09:38:49;13.40;77.00
73777;DHT22;62088;50.240;2.696;2023-03-18T09:44:26;13.60;76.30
73777;DHT22;62088;50.240;2.696;2023-03-18T09:55:28;14.00;75.20
73777;DHT22;62088;50.240;2.696;2023-03-18T09:58:02;14.10;75.00
73777;DHT22;62088;50.240;2.696;2023-03-18T10:00:36;14.10;75.00
73777;DHT22;62088;50.240;2.696;2023-03-18T10:03:33;14.30;74.50
73777;DHT22;62088;50.240;2.696;2023-03-18T10:06:22;14.40;75.00
73777;DHT22;62088;50.240;2.696;2023-03-18T10:11:25;14.60;72.50
73777;DHT22;62088;50.240;2.696;2023-03-18T10:19:35;14.90;73.10
73777;DHT22;62088;50.240;2.696;2023-03-18T10:22:22;14.90;72.00
73777;DHT22;62088;50.240;2.696;2023-03-18T10:25:21;15.00;71.50
73777;DHT22;62088;50.240;2.696;2023-03-18T10:28:11;15.20;71.70
73777;DHT22;62088;50.240;2.696;2023-03-18T10:33:45;15.30;70.80
73777;DHT22;62088;50.240;2.696;2023-03-18T10:38:53;15.40;69.90
73777;DHT22;62088;50.240;2.696;2023-03-18T10:41:24;15.50;69.50
73777;DHT22;62088;50.240;2.696;2023-03-18T10:43:55;15.50;69.00
73777;DHT22;62088;50.240;2.696;2023-03-18T10:46:24;15.60;68.90
73777;DHT22;62088;50.240;2.696;2023-03-18T10:49:16;15.60;69.70
73777;DHT22;62088;50.240;2.696;2023-03-18T10:51:56;15.60;69.50
73777;DHT22;62088;50.240;2.696;2023-03-18T10:54:35;15.70;68.50
73777;DHT22;62088;50.240;2.696;2023-03-18T10:57:04;15.60;68.30
73777;DHT22;62088;50.240;2.696;2023-03-18T10:59:32;15.50;67.80
73777;DHT22;62088;50.240;2.696;2023-03-18T11:02:10;15.50;67.30
73777;DHT22;62088;50.240;2.696;2023-03-18T11:04:53;15.40;66.60
73777;DHT22;62088;50.240;2.696;2023-03-18T11:07:24;15.30;67.50
73777;DHT22;62088;50.240;2.696;2023-03-18T11:09:54;15.20;68.80
73777;DHT22;62088;50.240;2.696;2023-03-18T11:12:36;15.30;69.90
73777;DHT22;62088;50.240;2.696;2023-03-18T11:15:09;15.40;69.60
73777;DHT22;62088;50.240;2.696;2023-03-18T11:17:37;15.50;68.50
73777;DHT22;62088;50.240;2.696;2023-03-18T11:20:22;15.60;69.40
73777;DHT22;62088;50.240;2.696;2023-03-18T11:22:52;15.80;68.80
73777;DHT22;62088;50.240;2.696;2023-03-18T11:25:24;15.90;67.80
73777;DHT22;62088;50.240;2.696;2023-03-18T11:27:58;15.90;67.90
73777;DHT22;62088;50.240;2.696;2023-03-18T11:30:33;16.00;67.60
73777;DHT22;62088;50.240;2.696;2023-03-18T11:35:56;16.10;65.50
73777;DHT22;62088;50.240;2.696;2023-03-18T11:38:27;16.00;65.80
73777;DHT22;62088;50.240;2.696;2023-03-18T11:43:36;15.90;67.70
73777;DHT22;62088;50.240;2.696;2023-03-18T11:46:10;15.90;67.20
73777;DHT22;62088;50.240;2.696;2023-03-18T11:48:42;16.00;67.20
73777;DHT22;62088;50.240;2.696;2023-03-18T11:56:54;16.10;66.40
73777;DHT22;62088;50.240;2.696;2023-03-18T12:08:13;15.80;65.90
73777;DHT22;62088;50.240;2.696;2023-03-18T12:14:04;15.60;65.70
73777;DHT22;62088;50.240;2.696;2023-03-18T12:24:44;15.40;66.60
73777;DHT22;62088;50.240;2.696;2023-03-18T12:41:52;15.10;67.50
73777;DHT22;62088;50.240;2.696;2023-03-18T12:47:59;15.00;68.10
73777;DHT22;62088;50.240;2.696;2023-03-18T12:50:31;15.00;68.90
73777;DHT22;62088;50.240;2.696;2023-03-18T12:53:02;15.00;69.10
73777;DHT22;62088;50.240;2.696;2023-03-18T12:55:38;15.10;69.60
73777;DHT22;62088;50.240;2.696;2023-03-18T12:58:12;15.20;68.10
73777;DHT22;62088;50.240;2.696;2023-03-18T13:01:00;15.20;68.20
73777;DHT22;62088;50.240;2.696;2023-03-18T13:03:40;15.20;68.00
73777;DHT22;62088;50.240;2.696;2023-03-18T13:11:56;15.30;67.00
73777;DHT22;62088;50.240;2.696;2023-03-18T13:17:15;15.30;67.20
73777;DHT22;62088;50.240;2.696;2023-03-18T13:19:44;15.30;67.30
73777;DHT22;62088;50.240;2.696;2023-03-18T13:22:16;15.30;67.20
73777;DHT22;62088;50.240;2.696;2023-03-18T13:33:35;15.00;66.80
73777;DHT22;62088;50.240;2.696;2023-03-18T13:36:11;14.90;67.20
73777;DHT22;62088;50.240;2.696;2023-03-18T13:39:05;14.80;67.20
73777;DHT22;62088;50.240;2.696;2023-03-18T13:41:40;14.80;67.80
73777;DHT22;62088;50.240;2.696;2023-03-18T13:44:17;14.70;68.60
73777;DHT22;62088;50.240;2.696;2023-03-18T13:47:01;14.80;68.70
73777;DHT22;62088;50.240;2.696;2023-03-18T13:49:31;14.70;68.50
73777;DHT22;62088;50.240;2.696;2023-03-18T13:51:59;14.70;68.60
73777;DHT22;62088;50.240;2.696;2023-03-18T13:54:35;14.70;68.80
73777;DHT22;62088;50.240;2.696;2023-03-18T13:59:49;14.70;68.40
73777;DHT22;62088;50.240;2.696;2023-03-18T14:08:03;14.80;68.90
73777;DHT22;62088;50.240;2.696;2023-03-18T14:10:31;14.80;69.10
73777;DHT22;62088;50.240;2.696;2023-03-18T14:13:23;14.80;69.00
73777;DHT22;62088;50.240;2.696;2023-03-18T14:15:52;14.70;68.80
73777;DHT22;62088;50.240;2.696;2023-03-18T14:18:23;14.80;69.20
73777;DHT22;62088;50.240;2.696;2023-03-18T14:20:58;14.80;69.30
73777;DHT22;62088;50.240;2.696;2023-03-18T14:23:37;14.80;69.70
73777;DHT22;62088;50.240;2.696;2023-03-18T14:26:15;14.90;69.40
73777;DHT22;62088;50.240;2.696;2023-03-18T14:28:46;14.90;69.50
73777;DHT22;62088;50.240;2.696;2023-03-18T14:31:29;14.90;69.50
73777;DHT22;62088;50.240;2.696;2023-03-18T14:34:03;15.00;69.30
73777;DHT22;62088;50.240;2.696;2023-03-18T14:39:16;15.20;68.20
73777;DHT22;62088;50.240;2.696;2023-03-18T14:41:47;15.30;68.00
73777;DHT22;62088;50.240;2.696;2023-03-18T14:44:45;15.30;67.80
73777;DHT22;62088;50.240;2.696;2023-03-18T14:47:19;15.30;68.00
73777;DHT22;62088;50.240;2.696;2023-03-18T14:50:34;15.30;68.50
73777;DHT22;62088;50.240;2.696;2023-03-18T14:55:34;15.20;67.40
73777;DHT22;62088;50.240;2.696;2023-03-18T14:58:03;15.10;67.50
73777;DHT22;62088;50.240;2.696;2023-03-18T15:00:35;15.10;68.80
73777;DHT22;62088;50.240;2.696;2023-03-18T15:03:15;15.00;70.50
73777;DHT22;62088;50.240;2.696;2023-03-18T15:05:45;14.80;72.60
73777;DHT22;62088;50.240;2.696;2023-03-18T15:08:19;14.60;73.40
73777;DHT22;62088;50.240;2.696;2023-03-18T15:10:49;14.40;74.40
73777;DHT22;62088;50.240;2.696;2023-03-18T15:13:22;14.30;74.70
73777;DHT22;62088;50.240;2.696;2023-03-18T15:15:51;14.10;75.30
73777;DHT22;62088;50.240;2.696;2023-03-18T15:18:27;14.00;75.70
73777;DHT22;62088;50.240;2.696;2023-03-18T15:23:34;13.70;76.70
73777;DHT22;62088;50.240;2.696;2023-03-18T15:26:22;13.70;76.90
73777;DHT22;62088;50.240;2.696;2023-03-18T15:28:59;13.60;77.20
73777;DHT22;62088;50.240;2.696;2023-03-18T15:31:28;13.50;77.50
73777;DHT22;62088;50.240;2.696;2023-03-18T15:34:13;13.50;77.80
73777;DHT22;62088;50.240;2.696;2023-03-18T15:36:43;13.50;78.60
73777;DHT22;62088;50.240;2.696;2023-03-18T15:39:35;13.60;79.20
73777;DHT22;62088;50.240;2.696;2023-03-18T15:42:12;13.60;79.50
73777;DHT22;62088;50.240;2.696;2023-03-18T15:44:40;13.60;79.50
73777;DHT22;62088;50.240;2.696;2023-03-18T15:47:16;13.60;79.30
73777;DHT22;62088;50.240;2.696;2023-03-18T15:49:55;13.60;79.10
73777;DHT22;62088;50.240;2.696;2023-03-18T15:52:30;13.50;79.10
73777;DHT22;62088;50.240;2.696;2023-03-18T15:55:00;13.60;79.40
73777;DHT22;62088;50.240;2.696;2023-03-18T15:57:35;13.60;79.90
73777;DHT22;62088;50.240;2.696;2023-03-18T16:00:05;13.70;79.80
73777;DHT22;62088;50.240;2.696;2023-03-18T16:02:37;13.70;79.80
73777;DHT22;62088;50.240;2.696;2023-03-18T16:05:19;13.70;79.70
73777;DHT22;62088;50.240;2.696;2023-03-18T16:07:47;13.80;79.60
73777;DHT22;62088;50.240;2.696;2023-03-18T16:10:15;13.90;79.70
73777;DHT22;62088;50.240;2.696;2023-03-18T16:12:46;13.90;79.70
73777;DHT22;62088;50.240;2.696;2023-03-18T16:15:17;14.00;79.00
73777;DHT22;62088;50.240;2.696;2023-03-18T16:17:51;14.00;78.60
73777;DHT22;62088;50.240;2.696;2023-03-18T16:20:22;14.00;78.40
73777;DHT22;62088;50.240;2.696;2023-03-18T16:22:50;14.00;78.20
73777;DHT22;62088;50.240;2.696;2023-03-18T16:25:17;14.00;78.20
73777;DHT22;62088;50.240;2.696;2023-03-18T16:27:47;14.00;78.10
73777;DHT22;62088;50.240;2.696;2023-03-18T16:30:18;14.00;78.00
73777;DHT22;62088;50.240;2.696;2023-03-18T16:32:45;14.00;78.00
73777;DHT22;62088;50.240;2.696;2023-03-18T16:35:20;14.00;77.90
73777;DHT22;62088;50.240;2.696;2023-03-18T16:37:48;13.90;77.50
73777;DHT22;62088;50.240;2.696;2023-03-18T16:40:26;13.90;77.30
73777;DHT22;62088;50.240;2.696;2023-03-18T16:42:54;13.90;76.90
73777;DHT22;62088;50.240;2.696;2023-03-18T16:45:29;13.90;76.90
73777;DHT22;62088;50.240;2.696;2023-03-18T16:48:05;13.90;76.90
73777;DHT22;62088;50.240;2.696;2023-03-18T16:50:37;13.80;76.80
73777;DHT22;62088;50.240;2.696;2023-03-18T16:53:28;13.90;76.80
73777;DHT22;62088;50.240;2.696;2023-03-18T16:58:42;13.80;76.70
73777;DHT22;62088;50.240;2.696;2023-03-18T17:01:14;13.80;76.80
73777;DHT22;62088;50.240;2.696;2023-03-18T17:03:42;13.80;76.80
73777;DHT22;62088;50.240;2.696;2023-03-18T17:06:10;13.80;76.90
73777;DHT22;62088;50.240;2.696;2023-03-18T17:08:38;13.70;76.90
73777;DHT22;62088;50.240;2.696;2023-03-18T17:11:05;13.70;76.80
73777;DHT22;62088;50.240;2.696;2023-03-18T17:13:34;13.70;76.50
73777;DHT22;62088;50.240;2.696;2023-03-18T17:16:03;13.60;76.40
73777;DHT22;62088;50.240;2.696;2023-03-18T17:18:31;13.60;76.30
73777;DHT22;62088;50.240;2.696;2023-03-18T17:20:58;13.60;76.30
73777;DHT22;62088;50.240;2.696;2023-03-18T17:23:27;13.60;76.30
73777;DHT22;62088;50.240;2.696;2023-03-18T17:25:56;13.50;76.30
73777;DHT22;62088;50.240;2.696;2023-03-18T17:28:30;13.50;76.40
73777;DHT22;62088;50.240;2.696;2023-03-18T17:30:58;13.50;76.40
73777;DHT22;62088;50.240;2.696;2023-03-18T17:33:28;13.50;76.60
73777;DHT22;62088;50.240;2.696;2023-03-18T17:35:57;13.40;76.60
73777;DHT22;62088;50.240;2.696;2023-03-18T17:38:28;13.40;76.60
73777;DHT22;62088;50.240;2.696;2023-03-18T17:41:02;13.40;76.60
73777;DHT22;62088;50.240;2.696;2023-03-18T17:43:33;13.40;76.50
73777;DHT22;62088;50.240;2.696;2023-03-18T17:46:01;13.30;76.40
73777;DHT22;62088;50.240;2.696;2023-03-18T17:48:34;13.30;76.40
73777;DHT22;62088;50.240;2.696;2023-03-18T17:51:16;13.30;76.40
73777;DHT22;62088;50.240;2.696;2023-03-18T17:53:46;13.20;76.40